Sven Kuhn

Chief Scout - St. Pauli
20 Nov 2027
Saturday
Process

Personality

Adaptability (10) Ambition (9) Controversy (2) Loyalty (2) Pressure (2) Professionalism (6) Sportsmanship (3) Temperament (12)

Profile

Coaching Style Democratic
License National A
Determination 10
Man Management 13
Motivating 8
Discipline 5
Job Satisfaction
100%
Fatigue
0%
Role Chief Scout
Wage 47.8K p/w
Contract 14.03.2029

Performance

Behaviour Good
Training Effectiveness
46%
Player Development
65%
Injury Prevention
55%
Tactical Implementation
25%

Recent Events

Attended a recruitment meeting now
Attended a recruitment meeting now
Attended a recruitment meeting 7d ago
Attended a recruitment meeting 7d ago
Recommended a transfer target 7d ago
Recommended a transfer target 7d ago
Observed a match 7d ago
Observed a match 14d ago

Currently Monitoring

138
Player Club Status Ability Confidence Watched Last Observed Latest Vote
Daniel Awuni Aduana Stars Active 98 / 90 40% 4 21.06.2027 -
Yusi Alavés Active 121 / 137 40% 6 21.06.2027 -
Lander Astiazarán Real Sociedad Active 103 / 107 40% 3 14.06.2027 -
Saïd El Mala Köln Active 130 / 143 40% 1 14.06.2027 -
Marcel Ruiz Brentford Negotiating 140 / 141 66% 1 01.06.2027 -
Givairo Read Feyenoord Active 153 / 144 40% 4 31.05.2027 -
Karim Coulibaly RC Strasbourg Active 119 / 127 40% 1 31.05.2027 -
Stanis Idumbo FC Metz Active 135 / 139 40% 4 30.05.2027 -
Shea Lacey Millwall Active 124 / 131 40% 2 30.05.2027 -
Riley Owen Wycombe Wanderers Active 112 / 103 40% 1 29.05.2027 -
Mamadou Diakhon Club Brugge Active 132 / 127 40% 2 27.05.2027 -
Sam Curtis Swindon Town Active 111 / 109 40% 1 26.05.2027 -
Jesús Rodríguez Napoli Active 149 / 144 40% 3 24.05.2027 -
Wiebe Kooistra Cambuur Active 107 / 103 40% 2 23.05.2027 -
Olívio Tomé Benfica Active 120 / 116 40% 2 20.05.2027 -
Can Uzun Eintracht Frankfurt Active 135 / 152 40% 3 20.05.2027 -
Héctor Fort Real Sociedad Active 127 / 140 40% 3 19.05.2027 -
Jaydee Canvot Liverpool Active 142 / 141 40% 1 19.05.2027 -
Finn Jeltsch VfB Stuttgart Active 144 / 145 40% 1 15.05.2027 -
Jofre Torrents Ajax Active 113 / 128 40% 1 14.05.2027 -
Senny Mayulu Paris Saint-Germain Active 140 / 153 40% 2 12.05.2027 -
Othmane Maamma Watford Active 134 / 134 40% 1 11.05.2027 -
Tiago Freitas Benfica Active 113 / 110 40% 1 09.05.2027 -
Illaijh de Ruijter ADO Den Haag Active 109 / 118 40% 2 08.05.2027 -
Ismaël Baouf Cambuur Active 119 / 122 40% 1 08.05.2027 -
Christian Kofane Bayer Leverkusen Active 148 / 148 40% 2 04.05.2027 -
Ayoub Oufkir AZ Active 133 / 125 40% 1 02.05.2027 -
Ethan Mbappé LOSC Lille Active 123 / 143 40% 1 02.05.2027 -
Gianluca Prestianni Benfica Active 145 / 141 40% 1 01.05.2027 -
Sindre Walle Egeli Nottingham Forest Active 129 / 134 40% 3 29.04.2027 -
Taylan Bulut Basaksehir Active 137 / 129 40% 1 29.04.2027 -
Oscar Schwartau Norwich City Active 125 / 134 40% 1 24.04.2027 -
Amine Moussaoui Angers SCO Active 92 / 108 40% 1 24.04.2027 -
Caleb Yirenkyi Coventry City Active 134 / 138 40% 3 21.04.2027 -
Gonçalo Oliveira Benfica Active 115 / 111 40% 2 15.04.2027 -
Thomas Alderweireld Dijon Active 122 / 125 40% 1 12.04.2027 -
Riquelme Thompson-Jones Shrewsbury Town Active 109 / 107 40% 1 10.04.2027 -
Pau Navarro Villarreal Active 145 / 144 40% 1 10.04.2027 -
Bastien Meupiyou Alverca Active 115 / 122 40% 1 07.04.2027 -
Martim Cunha Porto Active 97 / 109 40% 1 05.04.2027 -
Chema Andrés Liverpool Active 138 / 143 40% 1 05.04.2027 -
Nico O'Reilly Manchester City Active 158 / 161 40% 1 01.03.2027 -
Erick Sánchez Valladolid Negotiating 139 / 139 68% 1 01.01.2027 Approve
Adrian Dragusin CFR Cluj Negotiating 141 / 142 63% 1 01.01.2027 -
Samu Aghehowa Girona Negotiating 148 / 153 69% 1 01.01.2027 -
Bitello Empoli Active 135 / 135 68% 1 01.01.2027 Approve
Ole Pohlmann Rio Ave Active 135 / 116 40% 2 29.12.2026 -
Karim Adeyemi Barcelona Active 151 / 160 40% 4 28.12.2026 -
Fran García Betis Active 148 / 147 40% 2 28.12.2026 -
Bright Arrey-Mbi Braga Active 137 / 127 40% 1 28.12.2026 -
Boubacar Kamara Aston Villa Active 157 / 169 40% 3 27.12.2026 -
Carlos Romero Villarreal Active 153 / 149 40% 1 27.12.2026 -
Niklas Beste SC Freiburg Active 149 / 132 40% 2 26.12.2026 -
Castello Lukeba RB Leipzig Active 158 / 154 40% 2 26.12.2026 -
Mikel Jauregizar Athletic Bilbao Active 154 / 157 40% 3 23.12.2026 -
Seedy Jatta Sturm Graz Active 132 / 130 40% 1 23.12.2026 -
Enrique Clemente Las Palmas Active 118 / 127 40% 1 23.12.2026 -
Osame Sahraoui LOSC Lille Active 138 / 142 40% 1 21.12.2026 -
Lilian Brassier Eintracht Frankfurt Active 145 / 132 40% 1 21.12.2026 -
Nico González Newcastle United Active 155 / 168 40% 1 21.12.2026 -
Georges Mikautadze FC Augsburg Active 151 / 144 40% 3 19.12.2026 -
Ilaix Moriba Celta Active 150 / 144 40% 1 19.12.2026 -
Antonios Papadopoulos Lugano Active 129 / 119 40% 1 19.12.2026 -
Tim Lemperle TSG Hoffenheim Active 136 / 136 40% 1 19.12.2026 -
Philippe Keny Zurich Active 120 / 126 40% 3 18.12.2026 -
Oihan Sancet Eintracht Frankfurt Active 167 / 150 40% 7 15.12.2026 -
Tyrell Malacia Derby County Active 139 / 132 40% 1 15.12.2026 -
Jordan Beyer Burnley Active 144 / 129 40% 1 15.12.2026 -
Luiz Henrique VfB Stuttgart Active 135 / 149 40% 2 14.12.2026 -
Adrien Truffert Bournemouth Active 156 / 155 40% 1 14.12.2026 -
Fabian Rieder FC Augsburg Active 143 / 143 40% 2 13.12.2026 -
Kaishu Sano Mainz 05 Active 152 / 140 40% 1 13.12.2026 -
Mattia Zanotti Lugano Active 118 / 132 40% 4 11.12.2026 -
Matthias Seidl Rapid Wien Active 132 / 128 40% 4 11.12.2026 -
Paul Nebel Mainz 05 Active 149 / 140 40% 2 09.12.2026 -
Rafael Leão Galatasaray Active 170 / 158 40% 1 09.12.2026 -
Juan-José Perea Zurich Active 111 / 121 40% 3 06.12.2026 -
Bilal El Khannouss VfB Stuttgart Active 140 / 145 40% 1 04.12.2026 -
Kevin Schade Brentford Active 137 / 144 40% 6 03.12.2026 -
Khvicha Kvaratskhelia Inter Active 178 / 169 40% 1 03.12.2026 -
Ibrahim Salah Basel Active 120 / 122 40% 2 02.12.2026 -
Bledian Krasniqi Zurich Active 112 / 117 40% 1 27.11.2026 -
Matteo di Giusto Luzern Active 133 / 131 40% 1 26.11.2026 -
Enzo Le Fée Sunderland Active 137 / 140 40% 2 23.11.2026 -
Enzo Loiodice KAA Gent Active 119 / 126 40% 2 23.11.2026 -
Miguel Gutiérrez Bayer Leverkusen Active 138 / 153 40% 3 21.11.2026 -
Pau Víctor Estrela da Amadora Active 148 / 139 40% 2 21.11.2026 -
Frans Krätzig Red Bull Salzburg Active 127 / 134 40% 5 18.11.2026 -
Caspar Jander Southampton Active 122 / 128 40% 1 18.11.2026 -
Adrià Altimira Deportivo La Coruña Active 138 / 131 40% 1 18.11.2026 -
Carlos Vicente Udinese Active 138 / 140 40% 1 18.11.2026 -
Pol Lozano Espanyol Active 137 / 136 40% 1 17.11.2026 -
Alvyn Sanches Young Boys Active 143 / 132 40% 1 15.11.2026 -
Iliman N'Diaye Everton Active 149 / 155 40% 3 14.11.2026 -
Reiss Nelson VfL Wolfsburg Active 150 / 141 40% 1 14.11.2026 -
Tariq Lamptey Queens Park Rangers Active 126 / 135 40% 1 13.11.2026 -
Julian Palacios Feyenoord Active 160 / 146 40% 2 12.11.2026 -
Tuerto Sevilla Active 149 / 145 40% 2 10.11.2026 -
Noni Madueke Arsenal Active 148 / 155 40% 1 10.11.2026 -
Quinten Timber Crystal Palace Active 141 / 150 40% 1 09.11.2026 -
Mikkel Damsgaard Brentford Active 141 / 149 40% 2 08.11.2026 -
Isaac Schmidt Young Boys Active 139 / 132 40% 2 07.11.2026 -
Brennan Johnson Everton Active 134 / 149 40% 1 06.11.2026 -
Anton Stach Leeds United Active 152 / 151 40% 2 04.11.2026 -
Yeremay Deportivo La Coruña Active 155 / 141 40% 1 04.11.2026 -
Philipp Alaba Austria Wien Active 131 / 125 40% 1 03.11.2026 -
Gabri Veiga FC Augsburg Active 150 / 144 40% 1 03.11.2026 -
Moussa Diaby Bayer Leverkusen Active 160 / 146 40% 2 01.11.2026 -
Saïd El Mala Köln Lost 130 / 144 40% 1 29.10.2026 -
Hiroki Ito Bayern Munich Active 155 / 150 40% 2 25.10.2026 -
Matt O'Riley Brighton Active 141 / 145 40% 1 21.10.2026 -
Tobias Gulliksen Rapid Wien Active 123 / 123 40% 1 15.10.2026 -
Carlos Álvarez Club America Active 127 / 138 40% 3 14.10.2026 -
Armin Gigović Young Boys Active 115 / 125 40% 2 14.10.2026 -
Darian Maleš Young Boys Active 130 / 126 40% 4 13.10.2026 -
Amadou Onana Newcastle United Active 146 / 150 40% 1 13.10.2026 -
Iván Angulo Orlando City Active 140 / 134 40% 2 05.10.2026 -
Ez Abde Betis Active 139 / 141 40% 1 01.10.2026 -
Kelvin Yeboah Minnesota United FC Active 108 / 128 40% 1 30.09.2026 -
Malik Tillman Bayer Leverkusen Active 148 / 152 40% 1 30.09.2026 Needs More Info
Jesus Ferreira Seattle Sounders Active 139 / 129 40% 1 25.09.2026 -
Yeremy Pino Crystal Palace Active 136 / 154 40% 1 24.09.2026 -
Lukas Daschner St. Gallen Active 130 / 125 40% 1 22.09.2026 -
Diego Lainez Tigres Active 119 / 126 40% 1 22.09.2026 -
Maurice Malone Minnesota United FC Active 106 / 116 40% 2 19.09.2026 -
Abubakr Barry Red Bull Salzburg Active 125 / 124 40% 1 19.09.2026 -
Gabriel Pirani San Diego Football Club Active 112 / 132 40% 1 18.09.2026 -
Lukas Nmecha Leeds United Active 126 / 128 40% 1 15.09.2026 -
Facundo Medina Bayer Leverkusen Active 142 / 138 40% 1 15.09.2026 -
Ethan Galbraith Swansea City Active 135 / 133 40% 1 15.09.2026 -
Morten Hjulmand Atlético Madrid Active 152 / 155 40% 1 14.09.2026 -
Sven Botman Newcastle United Active 162 / 156 40% 1 13.09.2026 -
Patrick Osterhage SC Freiburg Active 132 / 132 40% 1 12.09.2026 -
Nicolas Madsen Queens Park Rangers Active 133 / 122 40% 1 11.09.2026 -
Ferdi Kadıoğlu Brighton Active 154 / 154 40% 1 11.09.2026 -
Cody Gakpo Liverpool Active 153 / 163 40% 2 19.08.2026 -
Jordan Morris Seattle Sounders Active 112 / 134 40% 1 17.08.2026 -
Patrik Schick Bayer Leverkusen Active 163 / 161 40% 1 03.08.2026 -